Time;durP1;ratioP1;P1;durP2;ratioP2;P2;SDS_P1;SDS_P2;PMS_P1;PMS_P2;Temp;Humidity;BMP_temperature;BMP_pressure;BME280_temperature;BME280_humidity;BME280_pressure;Samples;Min_cycle;Max_cycle;Signal;HPM_P1;HPM_P2
2022/05/03 00:01:04;;;;;;;;;22.00;21.33;;;;;16.86;41.23;101447.16;5098874;27;45386;-81
2022/05/03 00:03:48;;;;;;;;;31.67;23.00;;;;;16.82;40.88;101448.28;5099710;27;45503;-81
2022/05/03 00:06:30;;;;;;;;;28.00;24.67;;;;;16.68;41.21;101422.13;5099105;27;46469;-82
2022/05/03 00:09:05;;;;;;;;;24.33;24.33;;;;;16.97;41.00;101474.28;5099213;27;45281;-81
2022/05/03 00:11:45;;;;;;;;;25.33;22.33;;;;;16.76;40.80;101435.13;5099481;27;45427;-81
2022/05/03 00:14:34;;;;;;;;;27.67;25.67;;;;;16.62;41.30;101417.09;5081340;27;45448;-81
2022/05/03 00:16:59;;;;;;;;;28.67;26.33;;;;;16.84;40.95;101451.75;5099121;27;46630;-81
2022/05/03 00:19:26;;;;;;;;;28.33;26.00;;;;;16.88;41.49;101470.34;5098880;27;45364;-81
2022/05/03 00:21:52;;;;;;;;;26.00;26.00;;;;;16.55;41.25;101411.22;5099716;27;45459;-81
2022/05/03 00:24:18;;;;;;;;;31.33;24.67;;;;;16.81;41.13;101465.38;5099020;27;45363;-81
2022/05/03 00:26:45;;;;;;;;;25.00;25.00;;;;;16.83;41.35;101461.66;5098995;27;45388;-81
2022/05/03 00:29:10;;;;;;;;;23.00;20.67;;;;;16.49;41.51;101403.50;5099139;27;45342;-81
2022/05/03 00:31:36;;;;;;;;;28.67;23.67;;;;;16.66;41.46;101432.13;5080479;27;45446;-81
2022/05/03 00:34:03;;;;;;;;;29.00;25.33;;;;;16.24;41.44;101361.84;5099470;27;45500;-81
2022/05/03 00:36:28;;;;;;;;;26.33;24.67;;;;;16.61;41.51;101428.84;5098404;27;45591;-81
2022/05/03 00:38:54;;;;;;;;;27.00;27.00;;;;;16.71;41.63;101446.16;5080587;27;45451;-81
2022/05/03 00:41:45;;;;;;;;;27.33;26.00;;;;;16.73;41.49;101455.03;5099073;27;45230;-81
2022/05/03 00:44:56;;;;;;;;;28.67;25.00;;;;;16.71;41.52;101445.31;5099336;27;45312;-81
2022/05/03 00:47:51;;;;;;;;;27.67;27.67;;;;;16.53;41.21;101425.69;5098682;27;45361;-81
2022/05/03 00:50:42;;;;;;;;;27.33;24.33;;;;;16.44;41.58;101413.66;5035092;28;45435;-81
2022/05/03 00:53:12;;;;;;;;;25.67;22.00;;;;;16.51;41.64;101431.19;5035235;28;45544;-81
2022/05/03 00:56:23;;;;;;;;;26.33;23.33;;;;;16.62;41.19;101446.69;5035800;28;45291;-81
2022/05/03 00:59:02;;;;;;;;;31.67;30.00;;;;;16.38;41.51;101414.00;5033412;28;45466;-81
2022/05/03 01:01:33;;;;;;;;;29.33;26.33;;;;;16.60;41.32;101446.81;5018469;28;45875;-81
2022/05/03 01:04:26;;;;;;;;;30.67;28.00;;;;;16.58;41.70;101451.41;5035463;28;45313;-81
2022/05/03 01:07:01;;;;;;;;;25.67;22.33;;;;;16.57;41.42;101446.09;5035218;28;45759;-81
2022/05/03 01:09:32;;;;;;;;;27.00;24.00;;;;;16.55;41.52;101448.00;5035149;28;46827;-81
2022/05/03 01:12:22;;;;;;;;;36.33;25.33;;;;;16.48;41.50;101438.56;5034351;28;45397;-81
2022/05/03 01:15:10;;;;;;;;;29.67;27.33;;;;;16.53;41.66;101442.75;5035394;28;45601;-81
2022/05/03 01:17:50;;;;;;;;;25.67;24.67;;;;;16.36;41.61;101421.28;5035446;28;45405;-81
2022/05/03 01:20:50;;;;;;;;;25.33;25.33;;;;;16.48;41.56;101450.19;5034344;28;46111;-81
2022/05/03 01:23:37;;;;;;;;;29.33;24.00;;;;;16.47;41.75;101451.16;5015099;28;45455;-81
2022/05/03 01:26:26;;;;;;;;;24.67;22.00;;;;;16.36;41.23;101437.44;5015648;28;45268;-81
2022/05/03 01:29:10;;;;;;;;;26.00;23.67;;;;;16.07;41.48;101380.78;5035520;28;45515;-81
2022/05/03 01:31:36;;;;;;;;;26.67;21.33;;;;;16.09;41.84;101383.41;5034910;28;46172;-81
2022/05/03 01:34:03;;;;;;;;;30.33;26.00;;;;;16.43;41.99;101444.19;5018189;28;45438;-81
2022/05/03 01:36:38;;;;;;;;;28.00;25.67;;;;;16.41;41.81;101436.25;5034744;28;45555;-81
2022/05/03 01:39:15;;;;;;;;;27.33;23.33;;;;;15.87;41.35;101348.78;5035168;28;45308;-81
2022/05/03 01:41:57;;;;;;;;;28.67;24.67;;;;;16.37;41.80;101437.34;5017917;28;47323;-81
2022/05/03 01:44:28;;;;;;;;;30.00;25.33;;;;;16.34;41.77;101437.53;5034426;28;45500;-81
2022/05/03 01:47:07;;;;;;;;;26.67;24.67;;;;;16.18;41.71;101416.03;5018117;28;45505;-81
2022/05/03 01:50:21;;;;;;;;;29.33;23.33;;;;;16.22;41.43;101422.97;5034568;28;45470;-81
2022/05/03 01:52:59;;;;;;;;;30.67;24.00;;;;;15.92;41.39;101373.56;5034314;28;47473;-81
2022/05/03 01:56:08;;;;;;;;;29.00;25.33;;;;;16.14;41.73;101406.38;5034597;28;45475;-81
2022/05/03 01:58:56;;;;;;;;;20.00;20.00;;;;;15.84;41.70;101360.56;5034457;28;45545;-81
2022/05/03 02:01:40;;;;;;;;;28.67;26.00;;;;;16.22;41.69;101431.03;5068674;27;45674;-81
2022/05/03 02:04:30;;;;;;;;;23.33;20.00;;;;;15.88;41.47;101370.19;5079010;27;48431;-81
2022/05/03 02:07:07;;;;;;;;;22.33;22.33;;;;;16.18;41.92;101424.09;5079160;27;45231;-81
2022/05/03 02:09:45;;;;;;;;;25.67;19.33;;;;;16.14;42.32;101425.22;5097780;27;45325;-81
2022/05/03 02:12:21;;;;;;;;;24.00;22.00;;;;;15.90;42.35;101391.63;5097764;27;45483;-81
2022/05/03 02:14:55;;;;;;;;;19.00;17.33;;;;;15.82;42.82;101381.28;5097374;27;46590;-81
2022/05/03 02:17:20;;;;;;;;;25.00;22.00;;;;;16.02;42.96;101425.91;5079041;27;45451;-81
2022/05/03 02:20:17;;;;;;;;;30.33;22.33;;;;;15.98;43.00;101432.41;5097082;27;45440;-81
2022/05/03 02:23:10;;;;;;;;;22.00;18.33;;;;;15.95;43.09;101435.25;5098648;27;45558;-81
2022/05/03 02:25:38;;;;;;;;;26.33;23.67;;;;;15.93;43.43;101431.78;5100920;27;46322;-81
2022/05/03 02:28:05;;;;;;;;;26.33;23.67;;;;;15.63;43.33;101390.31;5100965;27;45436;-81
2022/05/03 02:30:35;;;;;;;;;25.00;22.67;;;;;15.56;43.48;101391.63;5100800;27;45455;-81
2022/05/03 02:33:05;;;;;;;;;23.00;20.67;;;;;15.65;43.60;101424.31;5100982;27;45383;-81
2022/05/03 02:35:35;;;;;;;;;30.33;23.00;;;;;15.79;43.68;101441.47;5100723;27;46461;-81
2022/05/03 02:38:05;;;;;;;;;24.00;22.67;;;;;15.76;44.00;101446.16;5100704;27;45470;-81
2022/05/03 02:40:32;;;;;;;;;26.00;22.67;;;;;15.74;43.70;101448.91;5100798;27;45444;-81
2022/05/03 02:42:58;;;;;;;;;24.33;21.67;;;;;15.33;43.93;101381.25;5101110;27;45571;-81
2022/05/03 02:45:24;;;;;;;;;24.00;21.00;;;;;15.73;43.81;101443.59;5100556;27;45382;-81
2022/05/03 02:48:17;;;;;;;;;20.33;20.33;;;;;15.68;43.77;101438.44;5100470;27;45435;-81
2022/05/03 02:51:01;;;;;;;;;25.33;23.67;;;;;15.50;44.19;101420.63;5100693;27;45344;-81
2022/05/03 02:54:11;;;;;;;;;27.67;25.00;;;;;15.65;43.89;101445.81;5100699;27;45309;-81
2022/05/03 02:56:48;;;;;;;;;24.67;21.67;;;;;15.59;44.13;101431.78;5048238;27;47378;-81
2022/05/03 03:02:33;;;;;;;;;18.67;17.00;;;;;15.60;44.05;101446.06;5100228;27;45421;-81
2022/05/03 03:05:09;;;;;;;;;26.00;21.67;;;;;15.30;44.03;101398.38;5100844;27;45320;-81
2022/05/03 03:08:10;;;;;;;;;22.67;22.67;;;;;15.59;44.37;101444.31;5100524;27;46742;-81
2022/05/03 03:10:52;;;;;;;;;27.67;23.33;;;;;15.63;43.70;101452.13;5036976;28;45376;-81
2022/05/03 03:13:20;;;;;;;;;15.33;15.00;;;;;15.64;43.71;101439.59;5037268;28;45433;-81
2022/05/03 03:15:47;;;;;;;;;26.33;22.67;;;;;15.64;44.00;101444.97;5037328;28;45551;-81
2022/05/03 03:18:16;;;;;;;;;34.00;27.00;;;;;15.64;44.00;101442.28;5036637;28;45436;-81
2022/05/03 03:20:47;;;;;;;;;28.33;27.00;;;;;15.45;43.94;101407.44;5020354;28;45863;-81
2022/05/03 03:23:15;;;;;;;;;22.00;22.00;;;;;15.66;43.85;101439.47;5036853;28;45540;-81
2022/05/03 03:25:43;;;;;;;;;32.00;23.67;;;;;15.66;43.96;101437.66;5037128;28;45637;-81
2022/05/03 03:28:12;;;;;;;;;27.00;25.33;;;;;15.66;43.71;101437.66;5036756;28;47452;-81
2022/05/03 03:30:40;;;;;;;;;32.00;26.00;;;;;15.33;43.88;101378.56;5036386;28;45489;-81
2022/05/03 03:33:07;;;;;;;;;26.67;22.67;;;;;15.39;43.76;101397.91;5036903;28;45443;-81
2022/05/03 03:35:34;;;;;;;;;31.00;24.33;;;;;15.66;43.82;101436.81;5035931;28;45513;-81
2022/05/03 03:38:01;;;;;;;;;22.33;21.67;;;;;15.66;43.67;101443.03;5020021;28;47104;-81
2022/05/03 03:40:27;;;;;;;;;27.67;23.67;;;;;15.68;43.44;101432.22;5036368;28;45489;-81
2022/05/03 03:42:53;;;;;;;;;30.67;27.00;;;;;15.55;43.55;101414.06;5036829;28;45487;-81
2022/05/03 03:45:19;;;;;;;;;24.67;22.33;;;;;15.26;43.68;101364.56;5046605;27;45566;-81
2022/05/03 03:47:46;;;;;;;;;24.33;24.33;;;;;15.40;43.46;101385.34;5099691;27;45434;-81
2022/05/03 03:50:12;;;;;;;;;25.33;25.00;;;;;15.51;43.86;101401.75;5099503;27;45503;-81
2022/05/03 03:52:41;;;;;;;;;25.33;24.00;;;;;15.67;43.50;101431.34;5099827;27;45412;-81
2022/05/03 03:55:08;;;;;;;;;26.33;24.00;;;;;15.16;43.70;101339.19;5099777;27;45337;-81
2022/05/03 03:57:35;;;;;;;;;29.00;21.33;;;;;15.56;43.73;101405.03;5099381;27;46216;-81
2022/05/03 04:00:03;;;;;;;;;30.33;26.33;;;;;15.71;43.53;101424.00;5099273;27;45506;-81
2022/05/03 04:02:28;;;;;;;;;29.33;26.00;;;;;15.49;43.85;101392.03;5080990;27;45418;-81
2022/05/03 04:04:54;;;;;;;;;27.33;23.00;;;;;15.62;43.39;101420.84;5099759;27;45591;-81
2022/05/03 04:07:19;;;;;;;;;24.67;22.33;;;;;15.70;43.52;101431.22;5099222;27;45491;-81
2022/05/03 04:09:45;;;;;;;;;23.00;21.33;;;;;15.44;43.69;101396.78;5099496;27;45346;-81
2022/05/03 04:12:10;;;;;;;;;28.33;26.00;;;;;15.63;43.62;101425.25;5099183;27;45420;-81
2022/05/03 04:14:36;;;;;;;;;24.33;21.00;;;;;15.50;43.63;101402.72;5080990;27;45643;-81
2022/05/03 04:17:01;;;;;;;;;29.67;26.33;;;;;15.26;43.58;101355.66;5099042;27;52419;-81
2022/05/03 04:19:27;;;;;;;;;34.33;28.00;;;;;15.61;43.44;101432.53;5099137;27;45354;-81
2022/05/03 04:21:52;;;;;;;;;32.33;24.33;;;;;15.66;43.65;101434.13;5099464;27;45427;-81
2022/05/03 04:24:18;;;;;;;;;28.67;25.33;;;;;15.22;43.62;101362.13;5099442;27;45416;-81
2022/05/03 04:26:43;;;;;;;;;27.33;24.33;;;;;15.27;43.32;101370.84;5080888;27;47531;-81
2022/05/03 04:29:09;;;;;;;;;24.00;22.67;;;;;15.01;43.41;101329.25;5080139;27;45606;-81
2022/05/03 04:31:36;;;;;;;;;29.33;24.00;;;;;15.29;43.71;101383.25;5099128;27;45424;-81
2022/05/03 04:34:03;;;;;;;;;21.67;20.33;;;;;15.17;43.56;101376.69;5099451;27;45431;-81
2022/05/03 04:36:33;;;;;;;;;30.67;26.00;;;;;15.51;43.87;101436.69;5098606;27;45448;-81
2022/05/03 04:39:03;;;;;;;;;35.33;27.00;;;;;15.15;43.90;101375.91;5098956;27;45483;-81
2022/05/03 04:41:28;;;;;;;;;28.67;25.00;;;;;15.05;43.90;101365.72;5098918;27;45393;-81
2022/05/03 04:43:54;;;;;;;;;29.50;25.50;;;;;15.00;44.33;101365.97;5098911;27;45429;-81
2022/05/03 04:46:20;;;;;;;;;29.67;24.67;;;;;15.42;44.11;101437.16;5098282;27;45350;-81
2022/05/03 04:48:46;;;;;;;;;31.75;29.25;;;;;15.39;44.45;101448.06;5099022;27;45372;-81
2022/05/03 04:51:22;;;;;;;;;28.00;24.50;;;;;14.88;44.48;101358.56;5098574;27;45522;-81
2022/05/03 04:53:48;;;;;;;;;32.25;29.25;;;;;15.36;44.37;101442.88;5098770;27;45514;-81
2022/05/03 04:56:21;;;;;;;;;31.67;26.67;;;;;15.33;44.58;101443.88;5098274;27;46161;-81
2022/05/03 04:58:55;;;;;;;;;32.00;27.33;;;;;15.24;44.55;101433.66;5098572;27;45357;-81
2022/05/03 05:01:21;;;;;;;;;27.00;24.00;;;;;15.29;44.59;101449.50;5080153;27;45360;-81
2022/05/03 05:03:47;;;;;;;;;30.00;26.00;;;;;15.27;44.89;101454.97;5098858;27;45297;-81
2022/05/03 05:06:12;;;;;;;;;33.75;30.00;;;;;15.13;45.03;101430.66;5098458;27;46069;-81
2022/05/03 05:08:39;;;;;;;;;30.50;26.00;;;;;15.06;44.94;101421.16;5098578;27;45382;-81
2022/05/03 05:11:05;;;;;;;;;31.00;27.33;;;;;15.25;44.79;101451.47;5098561;27;45420;-81
2022/05/03 05:13:34;;;;;;;;;25.33;25.33;;;;;15.23;44.75;101448.00;5098105;27;45463;-81
2022/05/03 05:16:00;;;;;;;;;25.00;25.00;;;;;15.24;44.80;101451.56;5098490;27;45321;-81
2022/05/03 05:18:27;;;;;;;;;30.00;26.33;;;;;15.23;45.21;101453.38;5079460;27;45416;-81
2022/05/03 05:20:53;;;;;;;;;35.00;26.00;;;;;14.92;45.05;101413.81;5080091;27;45482;-81
2022/05/03 05:23:18;;;;;;;;;29.67;26.00;;;;;15.16;45.12;101438.53;5098367;27;45333;-81
2022/05/03 05:25:44;;;;;;;;;30.67;29.00;;;;;14.98;45.51;101419.75;5098332;27;46334;-81
2022/05/03 05:28:09;;;;;;;;;23.67;23.67;;;;;14.92;45.09;101403.94;5079431;27;46015;-81
2022/05/03 05:30:35;;;;;;;;;26.67;24.67;;;;;14.85;45.16;101385.56;5080005;27;45438;-81
2022/05/03 05:33:00;;;;;;;;;37.00;29.33;;;;;15.18;45.21;101436.63;5098779;27;45471;-81
2022/05/03 05:35:25;;;;;;;;;32.33;28.67;;;;;15.38;45.02;101467.81;5097656;27;46004;-81
2022/05/03 05:37:51;;;;;;;;;22.67;20.33;;;;;15.41;45.28;101465.00;5079718;27;45278;-81
2022/05/03 05:40:16;;;;;;;;;28.33;26.00;;;;;15.45;45.06;101477.28;5097919;27;45282;-81
2022/05/03 05:42:42;;;;;;;;;25.00;22.67;;;;;15.45;44.85;101468.38;5098168;27;45319;-82
2022/05/03 05:45:07;;;;;;;;;31.00;24.33;;;;;15.07;44.93;101404.97;5079458;27;47253;-82
2022/05/03 05:47:33;;;;;;;;;34.00;27.67;;;;;15.24;45.40;101432.75;5097967;27;45308;-82
2022/05/03 05:49:58;;;;;;;;;29.67;27.67;;;;;15.43;44.84;101465.78;5097711;27;51042;-81
2022/05/03 05:55:08;;;;;;;;;33.33;32.33;;;;;15.53;45.15;101477.78;5097628;27;45542;-82
2022/05/03 05:57:34;;;;;;;;;33.00;28.00;;;;;15.48;44.87;101470.91;5096323;27;45398;-82
2022/05/03 06:00:00;;;;;;;;;32.33;30.00;;;;;15.21;45.08;101420.34;5079454;27;45259;-82
2022/05/03 06:02:26;;;;;;;;;34.00;31.00;;;;;15.59;44.93;101482.84;5097783;27;45563;-82
2022/05/03 06:04:51;;;;;;;;;31.67;29.00;;;;;15.39;44.66;101445.38;5097512;27;45298;-82
2022/05/03 06:07:16;;;;;;;;;28.33;28.33;;;;;15.32;45.08;101422.50;5097694;27;45832;-82
2022/05/03 06:09:43;;;;;;;;;26.00;24.00;;;;;15.66;44.94;101488.72;5097662;27;45518;-81
2022/05/03 06:12:09;;;;;;;;;33.00;27.00;;;;;15.65;44.89;101481.63;5097646;27;45412;-82
2022/05/03 06:14:34;;;;;;;;;33.00;29.33;;;;;15.54;45.17;101454.44;5097423;27;45356;-82
2022/05/03 06:16:59;;;;;;;;;28.33;26.33;;;;;15.37;44.77;101426.66;5097687;27;45570;-82
2022/05/03 06:19:25;;;;;;;;;36.00;28.00;;;;;15.71;44.84;101486.72;5097416;27;45341;-81
2022/05/03 06:21:51;;;;;;;;;35.33;29.00;;;;;15.73;44.78;101481.25;5079485;27;45546;-82
2022/05/03 06:24:16;;;;;;;;;24.33;22.00;;;;;15.63;44.72;101460.19;5097348;27;45447;-82
2022/05/03 06:26:42;;;;;;;;;32.33;28.67;;;;;15.53;44.88;101440.16;5097009;27;45400;-82
2022/05/03 06:29:09;;;;;;;;;38.00;31.67;;;;;15.62;45.18;101452.25;5097131;27;45495;-81
2022/05/03 06:31:42;;;;;;;;;31.00;30.33;;;;;15.90;45.18;101489.28;5097629;27;45389;-82
2022/05/03 06:34:08;;;;;;;;;29.33;25.33;;;;;15.73;45.10;101457.06;5096988;27;46229;-82
2022/05/03 06:36:35;;;;;;;;;30.33;24.33;;;;;15.21;44.67;101342.47;5078713;27;45412;-81
2022/05/03 06:39:04;;;;;;;;;31.33;25.67;;;;;15.67;44.60;101403.63;5097034;27;45320;-82
2022/05/03 06:41:30;;;;;;;;;29.00;26.67;;;;;15.78;44.29;101403.91;5097280;27;45558;-82
2022/05/03 06:43:58;;;;;;;;;27.00;26.67;;;;;15.95;44.42;101417.31;5097145;27;45480;-82
2022/05/03 06:46:25;;;;;;;;;27.33;24.00;;;;;16.32;44.42;101474.41;5096731;27;45546;-82
2022/05/03 06:48:50;;;;;;;;;29.33;26.00;;;;;16.35;44.10;101476.94;5097148;27;45362;-82
2022/05/03 06:51:16;;;;;;;;;32.00;27.67;;;;;16.52;44.10;101486.72;5078734;27;45649;-82
2022/05/03 06:53:41;;;;;;;;;25.33;22.67;;;;;16.45;43.18;101464.69;5096602;27;45404;-82
2022/05/03 06:56:07;;;;;;;;;21.00;20.00;;;;;16.72;42.61;101498.22;5096725;27;45317;-82
2022/05/03 06:58:32;;;;;;;;;31.00;28.33;;;;;16.78;43.11;101503.22;5097120;27;45415;-82
2022/05/03 07:01:06;;;;;;;;;31.33;25.67;;;;;16.48;42.85;101442.09;5097375;27;45309;-82
2022/05/03 07:03:31;;;;;;;;;23.33;20.67;;;;;16.61;42.67;101448.53;5096849;27;45322;-82
2022/05/03 07:05:57;;;;;;;;;28.33;23.00;;;;;16.33;42.93;101391.88;5078300;27;47357;-82
2022/05/03 07:08:22;;;;;;;;;25.67;23.33;;;;;17.00;42.98;101498.38;5096419;27;47480;-81
2022/05/03 07:10:47;;;;;;;;;26.00;25.00;;;;;16.61;42.67;101423.44;5100705;27;45560;-81
2022/05/03 07:13:13;;;;;;;;;26.67;25.67;;;;;17.07;42.88;101501.56;5100026;27;45363;-81
2022/05/03 07:15:39;;;;;;;;;27.67;24.00;;;;;17.00;42.32;101490.28;5100316;27;45401;-81
2022/05/03 07:23:32;;;;;;;;;30.00;25.00;;;;;16.74;42.15;101423.59;5099744;27;45421;-81
2022/05/03 07:25:58;;;;;;;;;25.67;22.00;;;;;17.03;42.11;101468.53;5100135;27;45345;-81
2022/05/03 07:28:23;;;;;;;;;23.67;22.33;;;;;17.25;42.45;101497.75;5100072;27;45368;-81
2022/05/03 07:30:49;;;;;;;;;19.00;19.00;;;;;17.36;41.96;101499.81;5100353;27;45314;-81
2022/05/03 07:33:14;;;;;;;;;24.67;22.00;;;;;17.17;41.99;101469.56;5099712;27;46423;-81
2022/05/03 07:35:40;;;;;;;;;22.67;20.33;;;;;17.19;42.04;101455.03;5099761;27;47585;-81
2022/05/03 07:38:05;;;;;;;;;24.67;22.67;;;;;17.20;41.66;101451.38;5099889;27;45444;-81
2022/05/03 07:40:30;;;;;;;;;29.67;21.33;;;;;17.61;42.06;101507.31;5100110;27;45421;-81
2022/05/03 07:42:56;;;;;;;;;26.33;22.00;;;;;17.47;41.47;101480.31;5099583;27;45949;-81
2022/05/03 07:45:21;;;;;;;;;21.67;20.67;;;;;17.47;41.90;101462.31;5099744;27;45429;-81
2022/05/03 07:47:47;;;;;;;;;24.00;21.33;;;;;17.79;41.84;101513.38;5099969;27;45474;-81
2022/05/03 07:50:13;;;;;;;;;23.00;22.00;;;;;17.55;41.39;101466.38;5081657;27;45484;-81
2022/05/03 07:52:39;;;;;;;;;30.33;19.33;;;;;17.71;41.59;101503.06;5099360;27;45446;-81
2022/05/03 07:55:07;;;;;;;;;24.00;20.00;;;;;17.64;41.18;101485.53;5099383;27;45422;-81
2022/05/03 07:57:33;;;;;;;;;21.67;21.67;;;;;17.61;40.85;101474.09;5099505;27;45291;-81
2022/05/03 07:59:58;;;;;;;;;25.00;18.67;;;;;17.86;41.06;101500.41;5100013;27;45685;-81
2022/05/03 08:02:25;;;;;;;;;21.33;18.33;;;;;17.79;41.41;101496.31;5099304;27;46083;-81
2022/05/03 08:04:51;;;;;;;;;13.33;11.00;;;;;17.74;41.57;101477.75;5099722;27;45403;-81
2022/05/03 08:07:18;;;;;;;;;24.33;21.67;;;;;18.00;41.76;101513.91;5099049;27;45487;-81
2022/05/03 08:09:43;;;;;;;;;23.00;20.33;;;;;17.81;41.52;101483.66;5099789;27;45445;-81
2022/05/03 08:12:09;;;;;;;;;22.00;22.00;;;;;18.07;41.59;101514.38;5099155;27;46110;-81
2022/05/03 08:14:35;;;;;;;;;20.67;19.00;;;;;17.64;41.00;101439.69;5099532;27;45282;-81
2022/05/03 08:17:01;;;;;;;;;19.33;17.33;;;;;18.02;41.36;101506.56;5080954;27;45431;-81
2022/05/03 08:19:26;;;;;;;;;21.67;16.33;;;;;18.14;40.86;101513.03;5081109;27;45459;-81
2022/05/03 08:21:53;;;;;;;;;23.33;21.00;;;;;17.54;40.77;101386.47;5098155;27;46056;-81
2022/05/03 08:24:21;;;;;;;;;28.00;27.00;;;;;18.38;40.63;101509.72;5099117;27;45282;-81
2022/05/03 08:26:46;;;;;;;;;24.00;22.67;;;;;18.59;40.46;101515.56;5080974;27;45472;-81
2022/05/03 08:29:12;;;;;;;;;26.33;20.33;;;;;18.80;40.28;101526.84;5099207;27;45675;-81
2022/05/03 08:31:37;;;;;;;;;20.00;18.00;;;;;19.01;40.40;101519.16;5098874;27;50392;-81
2022/05/03 08:34:02;;;;;;;;;16.67;16.67;;;;;18.89;39.75;101462.25;5099184;27;45401;-81
2022/05/03 08:36:29;;;;;;;;;22.33;20.67;;;;;19.39;39.64;101516.56;5098742;27;45356;-81
2022/05/03 08:44:24;;;;;;;;;18.00;15.00;;;;;20.00;38.93;101517.72;5098729;27;45554;-81
2022/05/03 08:46:50;;;;;;;;;28.67;18.00;;;;;20.20;38.35;101518.13;5099000;27;45577;-81
2022/05/03 08:49:17;;;;;;;;;22.67;18.00;;;;;20.46;37.48;101499.97;5099059;27;45401;-82
2022/05/03 08:51:44;;;;;;;;;26.33;21.00;;;;;20.57;37.18;101458.59;5098483;27;46240;-81
2022/05/03 08:54:10;;;;;;;;;22.33;21.67;;;;;21.12;36.88;101516.78;5098458;27;45361;-81
2022/05/03 08:56:37;;;;;;;;;21.67;16.00;;;;;21.27;36.05;101510.19;5098234;27;45353;-82
2022/05/03 08:59:02;;;;;;;;;20.67;18.00;;;;;21.43;35.62;101511.75;5099184;27;45451;-81
2022/05/03 09:01:27;;;;;;;;;17.00;15.00;;;;;21.54;35.05;101513.63;5098362;27;45367;-82
2022/05/03 09:03:53;;;;;;;;;19.67;17.33;;;;;21.44;34.17;101470.94;5098671;27;45412;-81
2022/05/03 09:06:19;;;;;;;;;17.67;15.67;;;;;21.83;34.18;101498.63;5098167;27;45326;-82
2022/05/03 09:08:51;;;;;;;;;13.00;13.00;;;;;22.15;34.37;101503.34;5099114;27;45425;-82
2022/05/03 09:11:19;;;;;;;;;17.67;15.67;;;;;22.16;33.92;101482.50;5098351;27;45433;-82
2022/05/03 09:13:46;;;;;;;;;17.67;14.67;;;;;22.39;34.24;101499.66;5098512;27;45708;-82
2022/05/03 09:16:17;;;;;;;;;14.00;11.00;;;;;22.41;33.25;101503.13;5098113;27;45443;-82
2022/05/03 09:18:44;;;;;;;;;14.00;12.33;;;;;22.46;33.72;101512.63;5080294;27;45452;-82
2022/05/03 09:24:23;;;;;;;;;16.67;14.33;;;;;22.12;34.41;101469.16;5092361;27;45592;-82
2022/05/03 09:26:48;;;;;;;;;21.33;20.00;;;;;22.39;33.75;101518.69;5098418;27;45456;-82
2022/05/03 09:29:14;;;;;;;;;18.33;17.33;;;;;22.38;33.91;101522.38;5098213;27;45672;-82
2022/05/03 09:31:46;;;;;;;;;15.67;14.00;;;;;22.34;33.65;101519.06;5097923;27;45349;-82
2022/05/03 09:34:26;;;;;;;;;13.33;12.67;;;;;22.32;33.10;101515.59;5097093;27;45518;-82
2022/05/03 09:36:58;;;;;;;;;16.67;16.67;;;;;22.28;33.33;101514.97;5098167;27;45381;-82
2022/05/03 09:39:31;;;;;;;;;15.67;14.33;;;;;21.99;34.15;101475.72;5079919;27;45501;-82
2022/05/03 09:42:06;;;;;;;;;18.00;15.33;;;;;22.27;33.60;101513.25;5098045;27;45455;-90
2022/05/03 09:44:36;;;;;;;;;17.33;17.33;;;;;21.97;33.62;101451.38;5097977;27;45332;-90
2022/05/03 09:47:06;;;;;;;;;19.67;17.67;;;;;22.19;34.26;101483.09;5098295;27;45538;-90
2022/05/03 09:49:41;;;;;;;;;16.33;14.67;;;;;22.48;34.38;101501.63;5097995;27;45453;-89
2022/05/03 09:52:12;;;;;;;;;18.33;16.67;;;;;22.36;33.10;101460.03;5097794;27;45395;-89
2022/05/03 09:54:47;;;;;;;;;15.67;12.67;;;;;23.04;33.97;101503.34;5097844;27;45523;-90
2022/05/03 09:57:20;;;;;;;;;18.33;14.00;;;;;23.35;32.76;101483.44;5097503;27;45300;-90
2022/05/03 09:59:47;;;;;;;;;18.00;15.33;;;;;23.39;32.33;101426.91;5098145;27;45238;-90
2022/05/03 10:02:16;;;;;;;;;16.33;16.33;;;;;24.87;32.35;101498.19;5079097;27;48412;-90
2022/05/03 10:04:43;;;;;;;;;20.00;14.67;;;;;26.69;29.78;101463.34;5097923;27;45531;-90
2022/05/03 10:07:09;;;;;;;;;18.67;15.00;;;;;28.55;27.49;101476.84;5097750;27;45466;-90
2022/05/03 10:09:35;;;;;;;;;14.00;14.00;;;;;30.31;25.25;101480.91;5079602;27;45613;-90
2022/05/03 10:12:02;;;;;;;;;14.33;13.33;;;;;31.74;23.30;101422.50;5097610;27;45860;-90
2022/05/03 10:14:27;;;;;;;;;12.67;10.33;;;;;33.65;21.46;101476.53;5079008;27;45459;-91
2022/05/03 10:22:30;;;;;;;;;10.00;10.00;;;;;36.58;18.94;101421.41;5014140;28;45580;-90
2022/05/03 10:24:56;;;;;;;;;9.00;7.67;;;;;37.33;18.49;101457.63;5014512;28;45495;-90
2022/05/03 10:27:24;;;;;;;;;12.00;11.00;;;;;37.51;17.86;101417.88;5014428;28;45524;-90
2022/05/03 10:30:19;;;;;;;;;10.33;10.33;;;;;37.95;17.83;101466.00;5014785;28;45413;-91
2022/05/03 10:32:44;;;;;;;;;10.67;10.00;;;;;37.99;16.95;101449.69;5014058;28;47225;-90
2022/05/03 10:35:32;;;;;;;;;9.67;9.00;;;;;37.89;17.54;101460.53;4997646;28;45456;-91
2022/05/03 10:37:57;;;;;;;;;12.00;11.00;;;;;37.47;18.01;101463.91;5014417;28;45540;-90
2022/05/03 10:40:39;;;;;;;;;10.00;9.00;;;;;36.93;18.26;101410.66;5014327;28;45395;-90
2022/05/03 10:43:12;;;;;;;;;12.00;12.00;;;;;37.28;17.82;101451.06;4997414;28;47105;-91
2022/05/03 10:45:55;;;;;;;;;10.00;7.33;;;;;37.29;18.19;101449.97;5017523;28;45423;-91
2022/05/03 10:48:29;;;;;;;;;12.67;10.67;;;;;37.03;17.78;101414.88;5000738;28;45414;-91
2022/05/03 10:51:03;;;;;;;;;10.00;10.00;;;;;36.83;18.07;101431.69;5018278;28;45510;-91
2022/05/03 10:53:41;;;;;;;;;8.33;6.67;;;;;36.83;17.64;101434.47;5000824;28;47673;-90
2022/05/03 10:56:18;;;;;;;;;9.33;9.00;;;;;37.23;17.35;101462.84;5036820;27;45439;-91
2022/05/03 10:59:07;;;;;;;;;6.67;6.67;;;;;37.67;17.51;101455.38;5082533;27;45385;-90
2022/05/03 11:01:53;;;;;;;;;8.00;8.00;;;;;38.04;16.57;101435.13;5100598;27;45488;-90
2022/05/03 11:04:19;;;;;;;;;8.00;7.00;;;;;38.20;16.74;101410.25;5070623;27;45521;-90
2022/05/03 11:06:47;;;;;;;;;9.33;7.00;;;;;38.64;15.36;101437.97;5082029;27;45935;-90
2022/05/03 11:09:15;;;;;;;;;9.33;8.00;;;;;38.56;14.96;101338.81;5100339;27;45492;-90
2022/05/03 11:11:50;;;;;;;;;7.67;5.67;;;;;39.77;14.73;101454.75;5100736;27;45345;-90
2022/05/03 11:14:22;;;;;;;;;8.00;7.33;;;;;40.20;14.91;101451.50;5081710;27;47131;-90
2022/05/03 11:17:08;;;;;;;;;5.33;5.33;;;;;40.41;14.25;101452.81;5100112;27;45395;-90
2022/05/03 11:19:49;;;;;;;;;6.00;6.00;;;;;39.61;14.57;101414.47;5081891;27;45391;-90
2022/05/03 11:22:23;;;;;;;;;6.33;6.33;;;;;38.34;14.85;101449.06;5100388;27;45432;-90
2022/05/03 11:24:52;;;;;;;;;6.00;6.00;;;;;36.81;15.42;101414.38;5081870;27;47632;-90
2022/05/03 11:27:19;;;;;;;;;8.00;6.00;;;;;35.82;16.34;101406.31;5100171;27;45334;-90
2022/05/03 11:29:47;;;;;;;;;5.00;4.33;;;;;35.18;16.33;101420.91;5099960;27;45476;-90
2022/05/03 11:32:15;;;;;;;;;9.00;7.33;;;;;34.39;16.98;101433.50;5100431;27;45461;-90
2022/05/03 11:34:41;;;;;;;;;5.00;5.00;;;;;33.09;17.74;101352.13;5081605;27;47525;-90
2022/05/03 11:37:07;;;;;;;;;7.00;7.00;;;;;32.87;17.47;101423.91;5081278;27;45369;-89
2022/05/03 11:39:36;;;;;;;;;7.00;6.33;;;;;32.01;17.79;101401.72;5100002;27;45380;-90
2022/05/03 11:42:01;;;;;;;;;6.67;5.00;;;;;31.30;18.18;101404.88;5100455;27;45467;-89
2022/05/03 11:44:30;;;;;;;;;6.00;6.00;;;;;31.09;19.41;101437.78;5099088;27;45423;-89
2022/05/03 11:46:59;;;;;;;;;5.00;5.00;;;;;30.58;20.04;101399.78;5081600;27;45450;-90
2022/05/03 11:49:26;;;;;;;;;8.00;8.00;;;;;30.45;20.14;101405.03;5099927;27;45349;-89
2022/05/03 11:57:30;;;;;;;;;5.00;5.00;;;;;30.32;20.87;101429.50;5085450;27;45302;-89
2022/05/03 11:59:58;;;;;;;;;8.33;4.00;;;;;30.28;20.35;101426.28;5061057;28;45510;-88